sensor_id;sensor_type;location;lat;lon;timestamp;P1;durP1;ratioP1;P2;durP2;ratioP2
55720;SDS011;41626;53.098;6.168;2022-09-09T00:04:00;11.93;;;7.97;;
55720;SDS011;41626;53.098;6.168;2022-09-09T00:06:52;8.70;;;6.32;;
55720;SDS011;41626;53.098;6.168;2022-09-09T00:09:24;10.90;;;8.13;;
55720;SDS011;41626;53.098;6.168;2022-09-09T00:15:07;14.10;;;9.70;;
55720;SDS011;41626;53.098;6.168;2022-09-09T00:17:38;10.88;;;7.55;;
55720;SDS011;41626;53.098;6.168;2022-09-09T00:20:32;16.27;;;7.93;;
55720;SDS011;41626;53.098;6.168;2022-09-09T00:23:12;12.90;;;7.70;;
55720;SDS011;41626;53.098;6.168;2022-09-09T00:28:18;15.07;;;9.90;;
55720;SDS011;41626;53.098;6.168;2022-09-09T00:30:45;13.20;;;8.73;;
55720;SDS011;41626;53.098;6.168;2022-09-09T00:33:15;10.03;;;8.10;;
55720;SDS011;41626;53.098;6.168;2022-09-09T00:35:56;13.82;;;7.78;;
55720;SDS011;41626;53.098;6.168;2022-09-09T00:38:40;8.60;;;6.95;;
55720;SDS011;41626;53.098;6.168;2022-09-09T00:44:02;11.50;;;7.43;;
55720;SDS011;41626;53.098;6.168;2022-09-09T00:46:47;15.63;;;7.88;;
55720;SDS011;41626;53.098;6.168;2022-09-09T00:52:32;10.32;;;7.70;;
55720;SDS011;41626;53.098;6.168;2022-09-09T00:57:44;10.93;;;6.82;;
55720;SDS011;41626;53.098;6.168;2022-09-09T01:08:05;8.93;;;6.85;;
55720;SDS011;41626;53.098;6.168;2022-09-09T01:10:50;20.77;;;8.32;;
55720;SDS011;41626;53.098;6.168;2022-09-09T01:13:25;7.40;;;6.10;;
55720;SDS011;41626;53.098;6.168;2022-09-09T01:15:56;9.32;;;6.25;;
55720;SDS011;41626;53.098;6.168;2022-09-09T01:18:26;9.82;;;6.20;;
55720;SDS011;41626;53.098;6.168;2022-09-09T01:29:09;7.18;;;5.28;;
55720;SDS011;41626;53.098;6.168;2022-09-09T01:34:21;9.75;;;5.60;;
55720;SDS011;41626;53.098;6.168;2022-09-09T01:39:34;8.65;;;5.32;;
55720;SDS011;41626;53.098;6.168;2022-09-09T01:42:03;7.90;;;5.80;;
55720;SDS011;41626;53.098;6.168;2022-09-09T01:44:31;9.57;;;6.97;;
55720;SDS011;41626;53.098;6.168;2022-09-09T01:46:57;12.43;;;6.10;;
55720;SDS011;41626;53.098;6.168;2022-09-09T01:49:23;12.95;;;6.70;;
55720;SDS011;41626;53.098;6.168;2022-09-09T01:51:50;8.65;;;6.22;;
55720;SDS011;41626;53.098;6.168;2022-09-09T01:54:22;7.55;;;5.78;;
55720;SDS011;41626;53.098;6.168;2022-09-09T02:02:57;11.18;;;7.05;;
55720;SDS011;41626;53.098;6.168;2022-09-09T02:05:40;15.82;;;6.95;;
55720;SDS011;41626;53.098;6.168;2022-09-09T02:13:20;9.35;;;8.13;;
55720;SDS011;41626;53.098;6.168;2022-09-09T02:15:51;10.93;;;7.43;;
55720;SDS011;41626;53.098;6.168;2022-09-09T02:18:18;16.15;;;8.45;;
55720;SDS011;41626;53.098;6.168;2022-09-09T02:20:51;8.40;;;6.82;;
55720;SDS011;41626;53.098;6.168;2022-09-09T02:23:18;19.83;;;9.30;;
55720;SDS011;41626;53.098;6.168;2022-09-09T02:25:45;10.63;;;7.50;;
55720;SDS011;41626;53.098;6.168;2022-09-09T02:28:12;10.48;;;7.97;;
55720;SDS011;41626;53.098;6.168;2022-09-09T02:30:40;15.35;;;8.90;;
55720;SDS011;41626;53.098;6.168;2022-09-09T02:33:12;11.98;;;8.00;;
55720;SDS011;41626;53.098;6.168;2022-09-09T02:35:39;8.68;;;7.78;;
55720;SDS011;41626;53.098;6.168;2022-09-09T02:38:09;14.02;;;8.80;;
55720;SDS011;41626;53.098;6.168;2022-09-09T02:40:38;17.88;;;9.32;;
55720;SDS011;41626;53.098;6.168;2022-09-09T02:43:04;17.40;;;9.15;;
55720;SDS011;41626;53.098;6.168;2022-09-09T02:54:45;15.63;;;9.57;;
55720;SDS011;41626;53.098;6.168;2022-09-09T02:57:08;14.80;;;10.13;;
55720;SDS011;41626;53.098;6.168;2022-09-09T02:59:37;29.08;;;11.15;;
55720;SDS011;41626;53.098;6.168;2022-09-09T03:02:03;16.20;;;11.35;;
55720;SDS011;41626;53.098;6.168;2022-09-09T03:04:29;11.02;;;9.63;;
55720;SDS011;41626;53.098;6.168;2022-09-09T03:06:56;13.48;;;10.63;;
55720;SDS011;41626;53.098;6.168;2022-09-09T03:09:23;12.45;;;10.80;;
55720;SDS011;41626;53.098;6.168;2022-09-09T03:11:49;11.35;;;9.98;;
55720;SDS011;41626;53.098;6.168;2022-09-09T03:14:15;16.73;;;11.77;;
55720;SDS011;41626;53.098;6.168;2022-09-09T03:16:41;14.27;;;9.82;;
55720;SDS011;41626;53.098;6.168;2022-09-09T03:19:08;20.48;;;11.60;;
55720;SDS011;41626;53.098;6.168;2022-09-09T03:21:34;14.98;;;11.30;;
55720;SDS011;41626;53.098;6.168;2022-09-09T03:24:00;21.00;;;11.98;;
55720;SDS011;41626;53.098;6.168;2022-09-09T03:26:28;19.30;;;11.68;;
55720;SDS011;41626;53.098;6.168;2022-09-09T03:28:55;16.23;;;12.15;;
55720;SDS011;41626;53.098;6.168;2022-09-09T03:31:21;15.00;;;11.23;;
55720;SDS011;41626;53.098;6.168;2022-09-09T03:33:47;16.27;;;12.23;;
55720;SDS011;41626;53.098;6.168;2022-09-09T03:36:13;17.38;;;11.98;;
55720;SDS011;41626;53.098;6.168;2022-09-09T03:38:40;16.02;;;11.93;;
55720;SDS011;41626;53.098;6.168;2022-09-09T03:41:06;16.73;;;10.13;;
55720;SDS011;41626;53.098;6.168;2022-09-09T03:43:32;14.05;;;10.57;;
55720;SDS011;41626;53.098;6.168;2022-09-09T03:45:59;14.88;;;11.98;;
55720;SDS011;41626;53.098;6.168;2022-09-09T03:48:25;15.75;;;11.25;;
55720;SDS011;41626;53.098;6.168;2022-09-09T03:50:53;17.30;;;12.10;;
55720;SDS011;41626;53.098;6.168;2022-09-09T03:53:21;14.65;;;10.20;;
55720;SDS011;41626;53.098;6.168;2022-09-09T03:55:51;14.02;;;11.02;;
55720;SDS011;41626;53.098;6.168;2022-09-09T03:58:24;17.00;;;9.98;;
55720;SDS011;41626;53.098;6.168;2022-09-09T04:03:21;13.05;;;10.13;;
55720;SDS011;41626;53.098;6.168;2022-09-09T04:05:49;19.60;;;11.65;;
55720;SDS011;41626;53.098;6.168;2022-09-09T04:08:16;18.20;;;10.65;;
55720;SDS011;41626;53.098;6.168;2022-09-09T04:10:44;16.70;;;10.57;;
55720;SDS011;41626;53.098;6.168;2022-09-09T04:13:11;13.18;;;9.48;;
55720;SDS011;41626;53.098;6.168;2022-09-09T04:15:40;12.73;;;10.75;;
55720;SDS011;41626;53.098;6.168;2022-09-09T04:18:06;10.93;;;9.80;;
55720;SDS011;41626;53.098;6.168;2022-09-09T04:20:32;14.65;;;9.38;;
55720;SDS011;41626;53.098;6.168;2022-09-09T04:22:58;9.75;;;7.93;;
55720;SDS011;41626;53.098;6.168;2022-09-09T04:25:23;16.13;;;9.73;;
55720;SDS011;41626;53.098;6.168;2022-09-09T04:27:55;12.60;;;10.05;;
55720;SDS011;41626;53.098;6.168;2022-09-09T04:30:23;14.40;;;9.25;;
55720;SDS011;41626;53.098;6.168;2022-09-09T04:32:49;12.32;;;9.43;;
55720;SDS011;41626;53.098;6.168;2022-09-09T04:35:15;12.90;;;10.00;;
55720;SDS011;41626;53.098;6.168;2022-09-09T04:37:42;14.95;;;10.95;;
55720;SDS011;41626;53.098;6.168;2022-09-09T04:40:08;14.30;;;9.27;;
55720;SDS011;41626;53.098;6.168;2022-09-09T04:42:37;14.15;;;10.20;;
55720;SDS011;41626;53.098;6.168;2022-09-09T04:45:04;16.10;;;9.48;;
55720;SDS011;41626;53.098;6.168;2022-09-09T04:47:31;14.18;;;10.30;;
55720;SDS011;41626;53.098;6.168;2022-09-09T04:49:57;15.80;;;10.93;;
55720;SDS011;41626;53.098;6.168;2022-09-09T04:52:23;17.23;;;9.35;;
55720;SDS011;41626;53.098;6.168;2022-09-09T04:54:48;15.65;;;11.68;;
55720;SDS011;41626;53.098;6.168;2022-09-09T04:57:14;12.73;;;10.45;;
55720;SDS011;41626;53.098;6.168;2022-09-09T04:59:40;16.05;;;11.40;;
55720;SDS011;41626;53.098;6.168;2022-09-09T05:02:05;12.25;;;10.43;;
55720;SDS011;41626;53.098;6.168;2022-09-09T05:04:31;14.70;;;11.88;;
55720;SDS011;41626;53.098;6.168;2022-09-09T05:06:58;16.73;;;11.35;;
55720;SDS011;41626;53.098;6.168;2022-09-09T05:09:24;14.23;;;10.75;;
55720;SDS011;41626;53.098;6.168;2022-09-09T05:11:50;14.70;;;11.90;;
55720;SDS011;41626;53.098;6.168;2022-09-09T05:14:16;13.07;;;10.38;;
55720;SDS011;41626;53.098;6.168;2022-09-09T05:16:44;18.35;;;10.93;;
55720;SDS011;41626;53.098;6.168;2022-09-09T05:19:10;14.77;;;10.38;;
55720;SDS011;41626;53.098;6.168;2022-09-09T05:21:36;22.67;;;11.50;;
55720;SDS011;41626;53.098;6.168;2022-09-09T05:24:02;18.08;;;10.80;;
55720;SDS011;41626;53.098;6.168;2022-09-09T05:26:28;11.73;;;9.52;;
55720;SDS011;41626;53.098;6.168;2022-09-09T05:28:54;15.68;;;10.13;;
55720;SDS011;41626;53.098;6.168;2022-09-09T05:31:20;14.27;;;10.43;;
55720;SDS011;41626;53.098;6.168;2022-09-09T05:33:46;12.85;;;10.35;;
55720;SDS011;41626;53.098;6.168;2022-09-09T05:36:15;12.13;;;10.00;;
55720;SDS011;41626;53.098;6.168;2022-09-09T05:38:42;12.98;;;10.90;;
55720;SDS011;41626;53.098;6.168;2022-09-09T05:41:09;13.80;;;9.57;;
55720;SDS011;41626;53.098;6.168;2022-09-09T05:43:40;14.65;;;9.73;;
55720;SDS011;41626;53.098;6.168;2022-09-09T05:46:14;18.55;;;10.00;;
55720;SDS011;41626;53.098;6.168;2022-09-09T05:48:44;13.43;;;11.07;;
55720;SDS011;41626;53.098;6.168;2022-09-09T05:51:12;14.70;;;9.20;;
55720;SDS011;41626;53.098;6.168;2022-09-09T05:53:40;14.03;;;10.20;;
55720;SDS011;41626;53.098;6.168;2022-09-09T05:56:07;14.73;;;10.10;;
55720;SDS011;41626;53.098;6.168;2022-09-09T05:58:39;17.17;;;9.40;;
55720;SDS011;41626;53.098;6.168;2022-09-09T06:01:06;13.52;;;9.35;;
55720;SDS011;41626;53.098;6.168;2022-09-09T06:03:37;11.02;;;9.57;;
55720;SDS011;41626;53.098;6.168;2022-09-09T06:08:31;16.33;;;10.23;;
55720;SDS011;41626;53.098;6.168;2022-09-09T06:11:00;14.73;;;10.40;;
55720;SDS011;41626;53.098;6.168;2022-09-09T06:13:28;11.38;;;9.98;;
55720;SDS011;41626;53.098;6.168;2022-09-09T06:15:54;25.27;;;13.15;;
55720;SDS011;41626;53.098;6.168;2022-09-09T06:18:19;17.80;;;11.85;;
55720;SDS011;41626;53.098;6.168;2022-09-09T06:20:55;12.23;;;10.95;;
55720;SDS011;41626;53.098;6.168;2022-09-09T06:23:22;15.95;;;10.25;;
55720;SDS011;41626;53.098;6.168;2022-09-09T06:25:47;13.15;;;9.77;;
55720;SDS011;41626;53.098;6.168;2022-09-09T06:28:14;15.27;;;10.68;;
55720;SDS011;41626;53.098;6.168;2022-09-09T06:30:40;14.07;;;10.43;;
55720;SDS011;41626;53.098;6.168;2022-09-09T06:33:06;14.75;;;10.85;;
55720;SDS011;41626;53.098;6.168;2022-09-09T06:35:32;19.55;;;11.60;;
55720;SDS011;41626;53.098;6.168;2022-09-09T06:37:57;17.58;;;11.45;;
55720;SDS011;41626;53.098;6.168;2022-09-09T06:40:24;12.15;;;9.18;;
55720;SDS011;41626;53.098;6.168;2022-09-09T06:42:49;12.60;;;9.75;;
55720;SDS011;41626;53.098;6.168;2022-09-09T06:45:15;11.73;;;10.05;;
55720;SDS011;41626;53.098;6.168;2022-09-09T06:47:42;13.57;;;9.70;;
55720;SDS011;41626;53.098;6.168;2022-09-09T06:50:08;11.25;;;8.95;;
55720;SDS011;41626;53.098;6.168;2022-09-09T06:52:35;9.85;;;8.70;;
55720;SDS011;41626;53.098;6.168;2022-09-09T06:55:01;13.15;;;8.40;;
55720;SDS011;41626;53.098;6.168;2022-09-09T06:57:28;12.93;;;9.15;;
55720;SDS011;41626;53.098;6.168;2022-09-09T06:59:53;12.25;;;8.73;;
55720;SDS011;41626;53.098;6.168;2022-09-09T07:02:19;10.00;;;8.50;;
55720;SDS011;41626;53.098;6.168;2022-09-09T07:04:45;12.82;;;8.75;;
55720;SDS011;41626;53.098;6.168;2022-09-09T07:07:10;12.05;;;8.60;;
55720;SDS011;41626;53.098;6.168;2022-09-09T07:09:41;13.82;;;8.25;;
55720;SDS011;41626;53.098;6.168;2022-09-09T07:12:07;8.52;;;7.18;;
55720;SDS011;41626;53.098;6.168;2022-09-09T07:14:33;8.82;;;6.72;;
55720;SDS011;41626;53.098;6.168;2022-09-09T07:17:01;7.30;;;6.60;;
55720;SDS011;41626;53.098;6.168;2022-09-09T07:19:26;8.55;;;6.88;;
55720;SDS011;41626;53.098;6.168;2022-09-09T07:21:52;10.48;;;7.75;;
55720;SDS011;41626;53.098;6.168;2022-09-09T07:24:18;11.80;;;7.80;;
55720;SDS011;41626;53.098;6.168;2022-09-09T07:26:43;8.48;;;7.55;;
55720;SDS011;41626;53.098;6.168;2022-09-09T07:29:09;8.75;;;6.32;;
55720;SDS011;41626;53.098;6.168;2022-09-09T07:31:38;8.23;;;6.93;;
55720;SDS011;41626;53.098;6.168;2022-09-09T07:34:05;9.85;;;6.75;;
55720;SDS011;41626;53.098;6.168;2022-09-09T07:36:40;8.70;;;6.68;;
55720;SDS011;41626;53.098;6.168;2022-09-09T07:39:08;10.07;;;7.50;;
55720;SDS011;41626;53.098;6.168;2022-09-09T07:44:06;10.57;;;6.85;;
55720;SDS011;41626;53.098;6.168;2022-09-09T07:46:33;14.88;;;8.35;;
55720;SDS011;41626;53.098;6.168;2022-09-09T07:49:00;8.88;;;5.28;;
55720;SDS011;41626;53.098;6.168;2022-09-09T07:51:46;12.73;;;7.30;;
55720;SDS011;41626;53.098;6.168;2022-09-09T07:54:14;12.40;;;6.00;;
55720;SDS011;41626;53.098;6.168;2022-09-09T07:56:41;10.13;;;5.35;;
55720;SDS011;41626;53.098;6.168;2022-09-09T07:59:07;10.50;;;6.45;;
55720;SDS011;41626;53.098;6.168;2022-09-09T08:01:40;6.65;;;5.95;;
55720;SDS011;41626;53.098;6.168;2022-09-09T08:04:15;11.18;;;6.85;;
55720;SDS011;41626;53.098;6.168;2022-09-09T08:06:53;6.32;;;5.68;;
55720;SDS011;41626;53.098;6.168;2022-09-09T08:09:20;12.45;;;5.57;;
55720;SDS011;41626;53.098;6.168;2022-09-09T08:11:50;11.75;;;6.20;;
55720;SDS011;41626;53.098;6.168;2022-09-09T08:14:16;7.50;;;6.50;;
55720;SDS011;41626;53.098;6.168;2022-09-09T08:16:43;11.23;;;7.18;;
55720;SDS011;41626;53.098;6.168;2022-09-09T08:19:10;13.98;;;6.88;;
55720;SDS011;41626;53.098;6.168;2022-09-09T08:21:37;11.63;;;5.32;;
55720;SDS011;41626;53.098;6.168;2022-09-09T08:24:06;7.85;;;5.78;;
55720;SDS011;41626;53.098;6.168;2022-09-09T08:26:34;11.55;;;5.32;;
55720;SDS011;41626;53.098;6.168;2022-09-09T08:29:02;10.73;;;5.80;;
55720;SDS011;41626;53.098;6.168;2022-09-09T08:31:35;10.05;;;5.53;;
55720;SDS011;41626;53.098;6.168;2022-09-09T08:34:03;10.65;;;5.95;;
55720;SDS011;41626;53.098;6.168;2022-09-09T08:36:30;9.40;;;6.00;;
55720;SDS011;41626;53.098;6.168;2022-09-09T08:38:58;8.18;;;5.55;;
55720;SDS011;41626;53.098;6.168;2022-09-09T08:46:54;13.27;;;6.18;;
55720;SDS011;41626;53.098;6.168;2022-09-09T08:52:32;10.90;;;5.90;;
55720;SDS011;41626;53.098;6.168;2022-09-09T08:55:26;13.13;;;5.00;;
55720;SDS011;41626;53.098;6.168;2022-09-09T08:57:54;5.93;;;4.50;;
55720;SDS011;41626;53.098;6.168;2022-09-09T09:00:22;8.15;;;4.35;;
55720;SDS011;41626;53.098;6.168;2022-09-09T09:02:58;6.70;;;3.72;;
55720;SDS011;41626;53.098;6.168;2022-09-09T09:05:37;6.85;;;3.80;;
55720;SDS011;41626;53.098;6.168;2022-09-09T09:10:56;7.55;;;3.45;;
55720;SDS011;41626;53.098;6.168;2022-09-09T09:16:17;9.70;;;3.92;;
55720;SDS011;41626;53.098;6.168;2022-09-09T09:18:47;6.75;;;3.15;;
55720;SDS011;41626;53.098;6.168;2022-09-09T09:21:21;9.77;;;4.75;;
55720;SDS011;41626;53.098;6.168;2022-09-09T09:27:38;7.30;;;3.70;;
55720;SDS011;41626;53.098;6.168;2022-09-09T09:30:14;8.07;;;3.88;;
55720;SDS011;41626;53.098;6.168;2022-09-09T09:33:12;15.07;;;4.05;;
55720;SDS011;41626;53.098;6.168;2022-09-09T09:35:36;13.13;;;5.82;;
55720;SDS011;41626;53.098;6.168;2022-09-09T09:38:08;6.82;;;3.53;;
55720;SDS011;41626;53.098;6.168;2022-09-09T09:40:51;10.13;;;3.15;;
55720;SDS011;41626;53.098;6.168;2022-09-09T09:43:30;12.82;;;5.32;;
55720;SDS011;41626;53.098;6.168;2022-09-09T09:45:57;8.85;;;4.28;;
55720;SDS011;41626;53.098;6.168;2022-09-09T09:48:24;6.75;;;2.38;;
55720;SDS011;41626;53.098;6.168;2022-09-09T09:53:26;8.35;;;3.08;;
55720;SDS011;41626;53.098;6.168;2022-09-09T09:58:22;7.60;;;2.92;;
55720;SDS011;41626;53.098;6.168;2022-09-09T10:00:50;10.43;;;3.08;;
55720;SDS011;41626;53.098;6.168;2022-09-09T10:03:24;7.32;;;2.60;;
55720;SDS011;41626;53.098;6.168;2022-09-09T10:05:56;9.80;;;3.28;;
55720;SDS011;41626;53.098;6.168;2022-09-09T10:08:26;6.45;;;2.17;;
55720;SDS011;41626;53.098;6.168;2022-09-09T10:16:16;9.03;;;2.13;;
55720;SDS011;41626;53.098;6.168;2022-09-09T10:26:50;6.82;;;1.85;;
55720;SDS011;41626;53.098;6.168;2022-09-09T10:29:32;7.15;;;2.83;;
55720;SDS011;41626;53.098;6.168;2022-09-09T10:37:52;8.07;;;1.95;;
55720;SDS011;41626;53.098;6.168;2022-09-09T10:46:12;7.40;;;3.20;;
55720;SDS011;41626;53.098;6.168;2022-09-09T10:54:51;8.38;;;2.90;;
55720;SDS011;41626;53.098;6.168;2022-09-09T11:00:15;6.72;;;2.15;;
55720;SDS011;41626;53.098;6.168;2022-09-09T11:02:44;10.15;;;3.67;;
55720;SDS011;41626;53.098;6.168;2022-09-09T11:05:31;5.47;;;1.95;;
55720;SDS011;41626;53.098;6.168;2022-09-09T11:08:15;8.32;;;1.95;;
55720;SDS011;41626;53.098;6.168;2022-09-09T11:13:46;6.75;;;2.88;;
55720;SDS011;41626;53.098;6.168;2022-09-09T11:19:11;6.30;;;1.35;;
55720;SDS011;41626;53.098;6.168;2022-09-09T11:21:46;6.95;;;1.65;;
55720;SDS011;41626;53.098;6.168;2022-09-09T11:24:18;4.45;;;1.02;;
55720;SDS011;41626;53.098;6.168;2022-09-09T11:26:52;14.20;;;2.67;;
55720;SDS011;41626;53.098;6.168;2022-09-09T11:32:19;11.68;;;2.67;;
55720;SDS011;41626;53.098;6.168;2022-09-09T11:40:36;6.85;;;2.38;;
55720;SDS011;41626;53.098;6.168;2022-09-09T11:43:12;7.50;;;1.98;;
55720;SDS011;41626;53.098;6.168;2022-09-09T11:45:52;10.32;;;2.97;;
55720;SDS011;41626;53.098;6.168;2022-09-09T11:48:31;7.07;;;2.63;;
55720;SDS011;41626;53.098;6.168;2022-09-09T11:51:09;6.35;;;2.50;;
55720;SDS011;41626;53.098;6.168;2022-09-09T11:54:44;9.50;;;3.15;;
55720;SDS011;41626;53.098;6.168;2022-09-09T11:56:54;10.82;;;3.55;;
55720;SDS011;41626;53.098;6.168;2022-09-09T11:59:21;13.43;;;2.97;;
55720;SDS011;41626;53.098;6.168;2022-09-09T12:01:54;9.23;;;3.70;;
55720;SDS011;41626;53.098;6.168;2022-09-09T12:07:36;4.15;;;2.20;;
55720;SDS011;41626;53.098;6.168;2022-09-09T12:12:55;11.38;;;2.42;;
55720;SDS011;41626;53.098;6.168;2022-09-09T12:15:32;5.68;;;2.08;;
55720;SDS011;41626;53.098;6.168;2022-09-09T12:17:58;7.68;;;2.25;;
55720;SDS011;41626;53.098;6.168;2022-09-09T12:20:38;6.78;;;2.58;;
55720;SDS011;41626;53.098;6.168;2022-09-09T12:23:30;8.50;;;1.90;;
55720;SDS011;41626;53.098;6.168;2022-09-09T12:26:13;6.70;;;1.70;;
55720;SDS011;41626;53.098;6.168;2022-09-09T12:34:17;7.32;;;3.22;;
55720;SDS011;41626;53.098;6.168;2022-09-09T12:37:17;14.48;;;2.40;;
55720;SDS011;41626;53.098;6.168;2022-09-09T12:39:54;3.97;;;1.10;;
55720;SDS011;41626;53.098;6.168;2022-09-09T12:42:22;7.38;;;1.90;;
55720;SDS011;41626;53.098;6.168;2022-09-09T12:44:52;6.25;;;1.38;;
55720;SDS011;41626;53.098;6.168;2022-09-09T12:47:20;5.28;;;1.95;;
55720;SDS011;41626;53.098;6.168;2022-09-09T12:49:48;8.57;;;1.70;;
55720;SDS011;41626;53.098;6.168;2022-09-09T12:54:57;7.40;;;2.15;;
55720;SDS011;41626;53.098;6.168;2022-09-09T12:57:24;11.30;;;2.55;;
55720;SDS011;41626;53.098;6.168;2022-09-09T13:00:03;5.05;;;1.60;;
55720;SDS011;41626;53.098;6.168;2022-09-09T13:02:31;11.38;;;3.58;;
55720;SDS011;41626;53.098;6.168;2022-09-09T13:05:05;5.80;;;1.67;;
55720;SDS011;41626;53.098;6.168;2022-09-09T13:07:39;5.38;;;2.10;;
55720;SDS011;41626;53.098;6.168;2022-09-09T13:10:05;9.73;;;2.30;;
55720;SDS011;41626;53.098;6.168;2022-09-09T13:12:31;3.28;;;1.85;;
55720;SDS011;41626;53.098;6.168;2022-09-09T13:14:57;7.75;;;1.70;;
55720;SDS011;41626;53.098;6.168;2022-09-09T13:17:24;5.32;;;1.95;;
55720;SDS011;41626;53.098;6.168;2022-09-09T13:19:56;7.00;;;1.92;;
55720;SDS011;41626;53.098;6.168;2022-09-09T13:22:30;4.97;;;1.92;;
55720;SDS011;41626;53.098;6.168;2022-09-09T13:27:36;6.63;;;1.77;;
55720;SDS011;41626;53.098;6.168;2022-09-09T13:30:23;6.90;;;2.45;;
55720;SDS011;41626;53.098;6.168;2022-09-09T13:38:35;8.65;;;1.65;;
55720;SDS011;41626;53.098;6.168;2022-09-09T13:41:07;6.97;;;1.63;;
55720;SDS011;41626;53.098;6.168;2022-09-09T13:43:36;4.18;;;0.85;;
55720;SDS011;41626;53.098;6.168;2022-09-09T13:46:24;1.63;;;1.00;;
55720;SDS011;41626;53.098;6.168;2022-09-09T13:48:57;4.70;;;0.68;;
55720;SDS011;41626;53.098;6.168;2022-09-09T13:51:32;5.00;;;1.27;;
55720;SDS011;41626;53.098;6.168;2022-09-09T13:53:59;2.05;;;1.05;;
55720;SDS011;41626;53.098;6.168;2022-09-09T13:56:25;3.90;;;1.13;;
55720;SDS011;41626;53.098;6.168;2022-09-09T13:58:51;6.60;;;2.38;;
55720;SDS011;41626;53.098;6.168;2022-09-09T14:01:17;4.28;;;1.17;;
55720;SDS011;41626;53.098;6.168;2022-09-09T14:03:42;3.90;;;1.08;;
55720;SDS011;41626;53.098;6.168;2022-09-09T14:06:09;2.65;;;1.40;;
55720;SDS011;41626;53.098;6.168;2022-09-09T14:08:36;4.05;;;1.00;;
55720;SDS011;41626;53.098;6.168;2022-09-09T14:11:05;3.00;;;1.23;;
55720;SDS011;41626;53.098;6.168;2022-09-09T14:13:31;2.77;;;1.27;;
55720;SDS011;41626;53.098;6.168;2022-09-09T14:15:57;2.17;;;1.10;;
55720;SDS011;41626;53.098;6.168;2022-09-09T14:18:23;6.55;;;2.72;;
55720;SDS011;41626;53.098;6.168;2022-09-09T14:20:50;6.07;;;1.42;;
55720;SDS011;41626;53.098;6.168;2022-09-09T14:23:16;3.63;;;1.00;;
55720;SDS011;41626;53.098;6.168;2022-09-09T14:25:42;5.40;;;1.35;;
55720;SDS011;41626;53.098;6.168;2022-09-09T14:28:09;3.50;;;1.05;;
55720;SDS011;41626;53.098;6.168;2022-09-09T14:30:36;6.25;;;1.85;;
55720;SDS011;41626;53.098;6.168;2022-09-09T14:33:04;3.60;;;1.85;;
55720;SDS011;41626;53.098;6.168;2022-09-09T14:35:29;4.80;;;1.30;;
55720;SDS011;41626;53.098;6.168;2022-09-09T14:37:55;2.70;;;1.10;;
55720;SDS011;41626;53.098;6.168;2022-09-09T14:40:21;5.13;;;2.42;;
55720;SDS011;41626;53.098;6.168;2022-09-09T14:42:47;6.53;;;2.03;;
55720;SDS011;41626;53.098;6.168;2022-09-09T14:45:12;4.45;;;1.38;;
55720;SDS011;41626;53.098;6.168;2022-09-09T14:47:38;3.85;;;1.55;;
55720;SDS011;41626;53.098;6.168;2022-09-09T14:50:04;5.40;;;1.98;;
55720;SDS011;41626;53.098;6.168;2022-09-09T14:52:31;3.67;;;0.73;;
55720;SDS011;41626;53.098;6.168;2022-09-09T14:54:56;2.42;;;1.15;;
55720;SDS011;41626;53.098;6.168;2022-09-09T14:57:22;5.05;;;2.05;;
55720;SDS011;41626;53.098;6.168;2022-09-09T14:59:48;3.67;;;1.42;;
55720;SDS011;41626;53.098;6.168;2022-09-09T15:02:15;4.10;;;1.80;;
55720;SDS011;41626;53.098;6.168;2022-09-09T15:04:41;4.22;;;2.42;;
55720;SDS011;41626;53.098;6.168;2022-09-09T15:07:07;6.05;;;2.28;;
55720;SDS011;41626;53.098;6.168;2022-09-09T15:09:32;5.20;;;1.58;;
55720;SDS011;41626;53.098;6.168;2022-09-09T15:11:58;5.35;;;1.00;;
55720;SDS011;41626;53.098;6.168;2022-09-09T15:14:24;4.07;;;1.63;;
55720;SDS011;41626;53.098;6.168;2022-09-09T15:16:51;2.35;;;0.90;;
55720;SDS011;41626;53.098;6.168;2022-09-09T15:19:16;2.15;;;0.85;;
55720;SDS011;41626;53.098;6.168;2022-09-09T15:21:42;5.88;;;1.83;;
55720;SDS011;41626;53.098;6.168;2022-09-09T15:24:08;2.95;;;1.17;;
55720;SDS011;41626;53.098;6.168;2022-09-09T15:26:34;2.95;;;0.60;;
55720;SDS011;41626;53.098;6.168;2022-09-09T15:29:03;5.40;;;0.90;;
55720;SDS011;41626;53.098;6.168;2022-09-09T15:31:29;4.40;;;1.17;;
55720;SDS011;41626;53.098;6.168;2022-09-09T15:34:03;1.75;;;0.80;;
55720;SDS011;41626;53.098;6.168;2022-09-09T15:36:37;4.53;;;1.02;;
55720;SDS011;41626;53.098;6.168;2022-09-09T15:39:08;1.80;;;1.42;;
55720;SDS011;41626;53.098;6.168;2022-09-09T15:44:04;4.45;;;1.65;;
55720;SDS011;41626;53.098;6.168;2022-09-09T15:46:37;3.88;;;1.30;;
55720;SDS011;41626;53.098;6.168;2022-09-09T15:49:18;4.30;;;1.55;;
55720;SDS011;41626;53.098;6.168;2022-09-09T15:51:56;6.20;;;4.05;;
55720;SDS011;41626;53.098;6.168;2022-09-09T15:54:24;2.63;;;2.10;;
55720;SDS011;41626;53.098;6.168;2022-09-09T15:56:57;5.10;;;2.88;;
55720;SDS011;41626;53.098;6.168;2022-09-09T15:59:25;22.85;;;12.48;;
55720;SDS011;41626;53.098;6.168;2022-09-09T16:01:53;5.43;;;2.83;;
55720;SDS011;41626;53.098;6.168;2022-09-09T16:04:19;3.05;;;1.80;;
55720;SDS011;41626;53.098;6.168;2022-09-09T16:09:18;3.33;;;1.63;;
55720;SDS011;41626;53.098;6.168;2022-09-09T16:11:44;3.42;;;1.88;;
55720;SDS011;41626;53.098;6.168;2022-09-09T16:14:11;4.22;;;1.75;;
55720;SDS011;41626;53.098;6.168;2022-09-09T16:16:38;4.45;;;1.95;;
55720;SDS011;41626;53.098;6.168;2022-09-09T16:19:05;7.40;;;2.05;;
55720;SDS011;41626;53.098;6.168;2022-09-09T16:21:33;3.30;;;2.72;;
55720;SDS011;41626;53.098;6.168;2022-09-09T16:26:29;3.17;;;1.73;;
55720;SDS011;41626;53.098;6.168;2022-09-09T16:28:56;2.58;;;1.80;;
55720;SDS011;41626;53.098;6.168;2022-09-09T16:31:23;5.28;;;2.65;;
55720;SDS011;41626;53.098;6.168;2022-09-09T16:33:49;5.78;;;2.03;;
55720;SDS011;41626;53.098;6.168;2022-09-09T16:36:16;7.65;;;2.58;;
55720;SDS011;41626;53.098;6.168;2022-09-09T16:38:47;5.32;;;2.33;;
55720;SDS011;41626;53.098;6.168;2022-09-09T16:41:17;3.85;;;2.30;;
55720;SDS011;41626;53.098;6.168;2022-09-09T16:43:44;4.38;;;2.25;;
55720;SDS011;41626;53.098;6.168;2022-09-09T16:46:14;8.38;;;3.10;;
55720;SDS011;41626;53.098;6.168;2022-09-09T16:48:41;7.32;;;2.92;;
55720;SDS011;41626;53.098;6.168;2022-09-09T16:51:11;8.18;;;3.40;;
55720;SDS011;41626;53.098;6.168;2022-09-09T16:56:07;3.90;;;2.08;;
55720;SDS011;41626;53.098;6.168;2022-09-09T16:58:34;5.57;;;2.78;;
55720;SDS011;41626;53.098;6.168;2022-09-09T17:01:00;5.68;;;2.75;;
55720;SDS011;41626;53.098;6.168;2022-09-09T17:03:28;8.43;;;2.00;;
55720;SDS011;41626;53.098;6.168;2022-09-09T17:05:54;7.30;;;2.83;;
55720;SDS011;41626;53.098;6.168;2022-09-09T17:08:23;4.35;;;2.13;;
55720;SDS011;41626;53.098;6.168;2022-09-09T17:10:49;3.25;;;1.65;;
55720;SDS011;41626;53.098;6.168;2022-09-09T17:13:15;3.58;;;1.33;;
55720;SDS011;41626;53.098;6.168;2022-09-09T17:15:44;4.93;;;1.92;;
55720;SDS011;41626;53.098;6.168;2022-09-09T17:18:11;2.03;;;1.85;;
55720;SDS011;41626;53.098;6.168;2022-09-09T17:20:38;5.82;;;2.47;;
55720;SDS011;41626;53.098;6.168;2022-09-09T17:23:05;3.90;;;1.90;;
55720;SDS011;41626;53.098;6.168;2022-09-09T17:25:36;6.38;;;2.33;;
55720;SDS011;41626;53.098;6.168;2022-09-09T17:28:03;6.63;;;1.58;;
55720;SDS011;41626;53.098;6.168;2022-09-09T17:30:29;3.33;;;1.60;;
55720;SDS011;41626;53.098;6.168;2022-09-09T17:32:59;2.25;;;1.65;;
55720;SDS011;41626;53.098;6.168;2022-09-09T17:35:25;5.72;;;1.80;;
55720;SDS011;41626;53.098;6.168;2022-09-09T17:37:55;3.80;;;2.45;;
55720;SDS011;41626;53.098;6.168;2022-09-09T17:40:21;7.47;;;2.38;;
55720;SDS011;41626;53.098;6.168;2022-09-09T17:42:47;5.20;;;2.55;;